Time;durP1;ratioP1;P1;durP2;ratioP2;P2;SDS_P1;SDS_P2;PMS_P1;PMS_P2;Temp;Humidity;BMP_temperature;BMP_pressure;BME280_temperature;BME280_humidity;BME280_pressure;Samples;Min_cycle;Max_cycle;Signal;HPM_P1;HPM_P2
2022/03/15 05:01:45;;;;;;;8.85;5.25;;;3.80;99.90;;;;;;5377434;22;91285;-80
2022/03/15 05:04:10;;;;;;;10.60;6.15;;;3.80;99.90;;;;;;4960421;28;92666;-79
2022/03/15 05:06:38;;;;;;;8.68;5.25;;;3.80;99.90;;;;;;4978146;28;90659;-80
2022/03/15 05:09:04;;;;;;;9.77;5.63;;;3.80;99.90;;;;;;4978489;28;89513;-80
2022/03/15 05:11:29;;;;;;;8.85;5.30;;;3.80;99.90;;;;;;4979673;28;89365;-80
2022/03/15 05:13:55;;;;;;;11.38;5.25;;;3.90;99.90;;;;;;4962739;28;92936;-80
2022/03/15 05:16:22;;;;;;;10.18;5.82;;;3.80;99.90;;;;;;4982586;22;91577;-73
2022/03/15 05:18:53;;;;;;;8.02;5.82;;;3.90;99.90;;;;;;4960942;28;91464;-73
2022/03/15 05:21:20;;;;;;;12.40;6.57;;;3.90;99.90;;;;;;4960422;28;89692;-73
2022/03/15 05:23:47;;;;;;;10.38;6.45;;;3.90;99.90;;;;;;4978752;28;89592;-73
2022/03/15 05:26:17;;;;;;;9.18;6.20;;;3.90;99.90;;;;;;4980306;28;91605;-73
2022/03/15 05:28:50;;;;;;;14.88;6.50;;;3.90;99.90;;;;;;4982924;28;90239;-74
2022/03/15 05:31:20;;;;;;;10.25;6.78;;;3.90;99.90;;;;;;4983897;28;89157;-73
2022/03/15 05:33:47;;;;;;;12.40;7.43;;;4.00;99.90;;;;;;4985385;28;89349;-74
2022/03/15 05:36:13;;;;;;;16.70;7.45;;;4.00;99.90;;;;;;4982036;28;89283;-74
2022/03/15 05:38:39;;;;;;;11.05;7.53;;;4.10;99.90;;;;;;4983577;28;89859;-74
2022/03/15 05:41:07;;;;;;;16.55;7.93;;;4.10;99.90;;;;;;4981917;28;89281;-74
2022/03/15 05:43:33;;;;;;;12.90;6.95;;;4.20;99.90;;;;;;4964056;28;91544;-74
2022/03/15 05:46:01;;;;;;;15.90;7.75;;;4.20;99.90;;;;;;4962927;28;92626;-74
2022/03/15 05:48:34;;;;;;;10.48;7.50;;;4.20;99.90;;;;;;4982809;28;90408;-74
2022/03/15 05:51:00;;;;;;;11.48;7.30;;;4.20;99.90;;;;;;4991690;28;90138;-74
2022/03/15 05:53:25;;;;;;;10.02;7.18;;;4.30;99.90;;;;;;4996842;28;89292;-73
2022/03/15 05:55:56;;;;;;;12.85;7.10;;;4.30;99.90;;;;;;4987895;28;89282;-74
2022/03/15 05:58:25;;;;;;;20.25;7.78;;;4.30;99.90;;;;;;4981154;28;89329;-73
2022/03/15 06:00:55;;;;;;;12.35;7.55;;;4.30;99.90;;;;;;4982919;28;89268;-74
2022/03/15 06:03:21;;;;;;;12.85;7.45;;;4.30;99.90;;;;;;4963487;28;92579;-74
2022/03/15 06:05:46;;;;;;;15.27;7.97;;;4.40;99.90;;;;;;4962822;28;91544;-74
2022/03/15 06:08:12;;;;;;;13.25;7.60;;;4.40;99.90;;;;;;4963303;28;91764;-74
2022/03/15 06:10:42;;;;;;;12.60;7.90;;;4.40;99.90;;;;;;4980953;28;89269;-74
2022/03/15 06:13:17;;;;;;;14.55;7.72;;;4.50;99.90;;;;;;4980609;28;89865;-74
2022/03/15 06:15:42;;;;;;;12.75;7.50;;;4.50;99.90;;;;;;4961492;28;92150;-75
2022/03/15 06:18:14;;;;;;;13.85;8.25;;;4.50;99.90;;;;;;4980780;28;91066;-75
2022/03/15 06:20:39;;;;;;;14.05;7.65;;;4.60;99.90;;;;;;4981560;28;89257;-75
2022/03/15 06:23:05;;;;;;;14.98;8.48;;;4.60;99.90;;;;;;4980785;28;89341;-75
2022/03/15 06:25:31;;;;;;;12.30;7.80;;;4.60;99.90;;;;;;4980217;28;89252;-75
2022/03/15 06:28:00;;;;;;;13.82;8.13;;;4.70;99.90;;;;;;4980660;28;89255;-76
2022/03/15 06:30:27;;;;;;;13.30;7.88;;;4.80;99.90;;;;;;4961106;28;89369;-76
2022/03/15 06:32:52;;;;;;;13.98;8.70;;;4.80;99.90;;;;;;4981131;28;89742;-77
2022/03/15 06:35:19;;;;;;;15.43;8.60;;;4.90;99.90;;;;;;4962031;28;91361;-76
2022/03/15 06:37:46;;;;;;;13.40;8.50;;;5.00;99.90;;;;;;4979856;28;89685;-75
2022/03/15 06:40:14;;;;;;;13.93;8.48;;;5.00;99.90;;;;;;4979899;28;90109;-77
2022/03/15 06:42:40;;;;;;;15.30;8.98;;;5.10;99.90;;;;;;4979709;28;89282;-76
2022/03/15 06:45:11;;;;;;;12.55;7.60;;;5.10;99.90;;;;;;4974636;28;89741;-76
2022/03/15 06:47:37;;;;;;;17.55;8.48;;;5.20;99.90;;;;;;4978480;28;90778;-75
2022/03/15 06:50:06;;;;;;;13.57;8.50;;;5.20;99.90;;;;;;4979335;28;89150;-76
2022/03/15 06:52:32;;;;;;;17.85;8.32;;;5.30;99.90;;;;;;4961249;28;91583;-75
2022/03/15 06:54:58;;;;;;;15.50;7.95;;;5.40;99.90;;;;;;4959720;28;94272;-76
2022/03/15 06:57:23;;;;;;;13.50;7.60;;;5.50;99.90;;;;;;4978510;28;89763;-76
2022/03/15 06:59:49;;;;;;;15.43;8.25;;;5.60;99.90;;;;;;4979080;28;89779;-77
2022/03/15 07:02:14;;;;;;;16.80;8.38;;;5.70;99.90;;;;;;4978801;28;89755;-76
2022/03/15 07:04:41;;;;;;;14.35;8.68;;;5.80;99.90;;;;;;4975716;28;90353;-77
2022/03/15 07:07:09;;;;;;;13.52;9.05;;;5.90;99.90;;;;;;4960308;28;90110;-77
2022/03/15 07:09:35;;;;;;;14.23;8.10;;;6.00;99.90;;;;;;4960875;28;89786;-76
2022/03/15 07:12:01;;;;;;;12.20;7.22;;;6.10;99.90;;;;;;4978888;28;89900;-76
2022/03/15 07:14:26;;;;;;;12.27;7.55;;;6.20;99.90;;;;;;4960360;28;91899;-77
2022/03/15 07:16:52;;;;;;;15.57;8.07;;;6.30;99.90;;;;;;4979098;28;89176;-76
2022/03/15 07:19:18;;;;;;;14.07;8.48;;;6.40;99.90;;;;;;4978691;28;89272;-76
2022/03/15 07:21:43;;;;;;;14.82;9.07;;;6.40;99.90;;;;;;4979142;28;91239;-76
2022/03/15 07:24:09;;;;;;;13.75;9.20;;;6.40;99.90;;;;;;4978674;28;89835;-75
2022/03/15 07:26:34;;;;;;;15.63;9.20;;;6.40;99.90;;;;;;4960662;28;91148;-75
2022/03/15 07:29:01;;;;;;;17.55;8.45;;;6.50;99.90;;;;;;4978999;28;91142;-76
2022/03/15 07:31:27;;;;;;;14.13;8.45;;;6.50;99.90;;;;;;4979080;28;89289;-77
2022/03/15 07:33:52;;;;;;;12.93;7.90;;;6.60;99.90;;;;;;4961806;28;92493;-76
2022/03/15 07:36:18;;;;;;;12.20;7.30;;;6.50;99.90;;;;;;4978504;28;89181;-76
2022/03/15 07:38:44;;;;;;;16.70;8.45;;;6.40;99.90;;;;;;4978855;28;89328;-76
2022/03/15 07:41:09;;;;;;;14.35;7.90;;;6.40;99.90;;;;;;4978182;28;89777;-75
2022/03/15 07:43:35;;;;;;;10.45;7.65;;;6.40;99.90;;;;;;4978467;28;89335;-77
2022/03/15 07:46:01;;;;;;;14.40;8.18;;;6.40;99.90;;;;;;4980112;28;90998;-79
2022/03/15 07:48:26;;;;;;;16.40;7.55;;;6.40;99.90;;;;;;4979301;28;89508;-76
2022/03/15 07:50:52;;;;;;;13.00;7.75;;;6.50;99.90;;;;;;4977908;28;90136;-76
2022/03/15 07:53:18;;;;;;;13.23;7.88;;;6.50;99.90;;;;;;4978250;28;90880;-75
2022/03/15 07:55:44;;;;;;;15.35;7.72;;;6.70;99.90;;;;;;4959714;28;92623;-75
2022/03/15 07:58:09;;;;;;;13.63;7.28;;;6.70;99.90;;;;;;4978789;28;89378;-76
2022/03/15 08:00:35;;;;;;;14.80;7.47;;;6.80;99.90;;;;;;4978295;28;89332;-76
2022/03/15 08:03:00;;;;;;;14.00;7.72;;;6.90;99.90;;;;;;4977007;28;91684;-77
2022/03/15 08:05:28;;;;;;;11.23;7.80;;;6.90;99.90;;;;;;4977410;28;93273;-76
2022/03/15 08:07:54;;;;;;;13.60;7.43;;;7.10;99.90;;;;;;4978007;28;89448;-77
2022/03/15 08:10:21;;;;;;;9.90;7.07;;;7.30;99.90;;;;;;4978448;28;89052;-77
2022/03/15 08:12:47;;;;;;;9.82;7.07;;;7.50;99.90;;;;;;4978273;28;89603;-76
2022/03/15 08:15:12;;;;;;;13.07;7.22;;;7.60;99.90;;;;;;4976930;28;89880;-77
2022/03/15 08:17:39;;;;;;;15.90;7.72;;;7.80;99.90;;;;;;4978370;28;90229;-76
2022/03/15 08:20:05;;;;;;;10.88;6.93;;;7.90;99.90;;;;;;4978542;28;91243;-77
2022/03/15 08:22:31;;;;;;;10.88;7.07;;;7.80;99.90;;;;;;4978700;28;90392;-76
2022/03/15 08:24:58;;;;;;;10.95;7.32;;;7.80;99.90;;;;;;4978460;28;89576;-77
2022/03/15 08:27:23;;;;;;;12.55;7.25;;;7.80;99.90;;;;;;4978543;28;90335;-77
2022/03/15 08:29:49;;;;;;;12.32;8.25;;;7.80;99.90;;;;;;4978343;28;89674;-76
2022/03/15 08:32:15;;;;;;;11.85;7.70;;;7.70;99.90;;;;;;4978433;28;90123;-77
2022/03/15 08:34:42;;;;;;;10.18;7.22;;;7.70;99.90;;;;;;4978975;28;88988;-76
2022/03/15 08:37:12;;;;;;;11.27;7.80;;;7.70;99.90;;;;;;4978558;28;89648;-78
2022/03/15 08:39:38;;;;;;;12.95;7.90;;;7.80;99.90;;;;;;4976876;28;91161;-77
2022/03/15 08:42:04;;;;;;;11.40;7.68;;;7.90;99.90;;;;;;4976882;28;90193;-77
2022/03/15 08:44:30;;;;;;;8.95;6.40;;;8.10;99.90;;;;;;4978086;28;89667;-77
2022/03/15 08:46:56;;;;;;;9.68;6.15;;;8.40;99.90;;;;;;4978354;28;89074;-77
2022/03/15 08:49:21;;;;;;;9.65;6.47;;;8.50;99.90;;;;;;4978200;28;89563;-76
2022/03/15 08:51:48;;;;;;;11.13;6.30;;;8.50;99.90;;;;;;4978177;28;89416;-75
2022/03/15 08:54:14;;;;;;;9.15;6.45;;;8.50;99.90;;;;;;4977722;28;92639;-74
2022/03/15 08:56:40;;;;;;;12.35;5.85;;;8.70;99.90;;;;;;4979440;28;89658;-78
2022/03/15 08:59:06;;;;;;;11.70;6.07;;;8.90;99.90;;;;;;4977895;28;92638;-77
2022/03/15 09:01:32;;;;;;;11.75;7.32;;;9.10;99.90;;;;;;4978602;28;90009;-76
2022/03/15 09:03:58;;;;;;;10.32;6.22;;;9.40;99.90;;;;;;4979319;28;89416;-77
2022/03/15 09:06:23;;;;;;;10.25;5.82;;;9.70;99.90;;;;;;4978903;28;90147;-77
2022/03/15 09:08:49;;;;;;;12.73;5.85;;;9.70;99.90;;;;;;4984693;28;89280;-76
2022/03/15 09:11:14;;;;;;;11.10;6.13;;;9.90;99.90;;;;;;4997413;28;91884;-76
2022/03/15 09:13:42;;;;;;;12.32;6.03;;;10.10;99.90;;;;;;4989370;28;89148;-74
2022/03/15 09:16:07;;;;;;;13.23;6.53;;;10.10;99.90;;;;;;4979133;28;89391;-75
2022/03/15 09:18:33;;;;;;;11.20;6.63;;;10.10;99.90;;;;;;4978295;28;91979;-75
2022/03/15 09:20:59;;;;;;;12.27;5.60;;;10.10;99.90;;;;;;4980221;28;90411;-75
2022/03/15 09:23:24;;;;;;;10.35;5.82;;;10.00;99.90;;;;;;4981297;28;88943;-76
2022/03/15 09:25:50;;;;;;;12.60;6.03;;;10.20;99.90;;;;;;4979268;28;89244;-77
2022/03/15 09:28:16;;;;;;;12.57;5.68;;;10.30;99.90;;;;;;4962221;28;92374;-77
2022/03/15 09:30:44;;;;;;;10.95;6.05;;;10.40;99.90;;;;;;4961328;28;93728;-75
2022/03/15 09:33:10;;;;;;;10.82;6.22;;;10.50;99.90;;;;;;4979587;28;89594;-77
2022/03/15 09:35:35;;;;;;;9.23;6.05;;;10.40;99.90;;;;;;4980202;28;89345;-77
2022/03/15 09:38:02;;;;;;;8.88;5.95;;;10.70;99.90;;;;;;4979692;28;89905;-77
2022/03/15 09:40:28;;;;;;;11.32;6.38;;;10.80;99.90;;;;;;4978081;28;89271;-76
2022/03/15 09:42:58;;;;;;;9.63;5.80;;;10.90;99.90;;;;;;4977577;28;89667;-76
2022/03/15 09:45:25;;;;;;;9.23;5.80;;;10.80;99.90;;;;;;4977469;28;89217;-76
2022/03/15 09:47:56;;;;;;;8.82;5.93;;;10.60;99.90;;;;;;4977514;28;89091;-75
2022/03/15 09:50:23;;;;;;;7.85;5.45;;;10.70;99.90;;;;;;4977526;28;89970;-75
2022/03/15 09:52:50;;;;;;;8.38;5.03;;;11.10;99.90;;;;;;4977265;28;89626;-76
2022/03/15 09:55:16;;;;;;;12.60;6.00;;;11.10;99.90;;;;;;4976955;28;90189;-75
2022/03/15 09:57:42;;;;;;;8.55;6.20;;;11.20;99.90;;;;;;4977051;28;89392;-75
2022/03/15 10:00:10;;;;;;;10.32;5.82;;;11.30;99.90;;;;;;4977108;28;90331;-76
2022/03/15 10:02:40;;;;;;;9.63;6.30;;;11.40;99.90;;;;;;4977289;28;89315;-78
2022/03/15 10:05:07;;;;;;;10.40;5.88;;;11.10;99.90;;;;;;4976951;28;89200;-76
2022/03/15 10:07:33;;;;;;;8.52;5.72;;;11.30;99.90;;;;;;4976843;28;90489;-75
2022/03/15 10:10:00;;;;;;;8.60;6.00;;;11.40;99.90;;;;;;4977494;28;90028;-77
2022/03/15 10:12:26;;;;;;;11.45;6.20;;;11.60;99.90;;;;;;4977947;28;89616;-76
2022/03/15 10:14:52;;;;;;;9.57;6.00;;;11.70;99.90;;;;;;4959041;28;89331;-77
2022/03/15 10:17:17;;;;;;;9.52;6.00;;;11.80;99.90;;;;;;4977026;28;89585;-77
2022/03/15 10:19:54;;;;;;;11.00;6.28;;;11.80;99.90;;;;;;4960927;28;92721;-78
2022/03/15 10:22:21;;;;;;;13.73;6.70;;;11.70;99.90;;;;;;4962942;28;92690;-75
2022/03/15 10:24:47;;;;;;;11.75;6.43;;;11.40;99.90;;;;;;4980336;28;89205;-75
2022/03/15 10:27:15;;;;;;;14.27;7.30;;;11.30;99.90;;;;;;4962106;28;92571;-75
2022/03/15 10:29:42;;;;;;;10.70;6.78;;;11.30;99.90;;;;;;4962103;28;91686;-76
2022/03/15 10:32:08;;;;;;;14.82;8.00;;;11.20;99.90;;;;;;4980210;28;89764;-77
2022/03/15 10:34:34;;;;;;;12.10;7.22;;;11.10;99.90;;;;;;4980334;28;89100;-77
2022/03/15 10:36:59;;;;;;;10.65;6.78;;;10.90;99.90;;;;;;4980904;28;90303;-77
2022/03/15 10:39:26;;;;;;;16.73;7.88;;;10.90;99.90;;;;;;4980310;28;90079;-77
2022/03/15 10:41:55;;;;;;;11.68;7.47;;;11.10;99.90;;;;;;4980012;28;89177;-76
2022/03/15 10:44:36;;;;;;;14.25;8.10;;;11.20;99.90;;;;;;4980021;28;90282;-77
2022/03/15 10:47:04;;;;;;;18.08;8.40;;;11.10;99.90;;;;;;4979634;28;92112;-76
2022/03/15 10:49:33;;;;;;;20.83;8.68;;;11.00;99.90;;;;;;4980974;28;90327;-76
2022/03/15 10:51:58;;;;;;;11.60;7.60;;;10.90;99.90;;;;;;4962172;28;91166;-75
2022/03/15 10:54:26;;;;;;;15.02;7.22;;;10.90;99.90;;;;;;4979940;28;89259;-76
2022/03/15 10:56:59;;;;;;;14.38;7.50;;;10.80;99.90;;;;;;4979650;28;89965;-76
2022/03/15 10:59:26;;;;;;;13.93;7.60;;;10.70;99.90;;;;;;4961609;28;92576;-76
2022/03/15 11:01:53;;;;;;;15.27;7.90;;;10.70;99.90;;;;;;4964492;28;91556;-75
2022/03/15 11:04:20;;;;;;;19.40;8.57;;;10.60;99.90;;;;;;4964667;28;89327;-76
2022/03/15 11:06:51;;;;;;;14.57;7.88;;;10.70;99.90;;;;;;4981513;28;90371;-76
2022/03/15 11:09:27;;;;;;;15.25;7.72;;;10.70;99.90;;;;;;4962850;28;94057;-75
2022/03/15 11:12:20;;;;;;;13.63;7.80;;;10.80;99.90;;;;;;4963590;28;93208;-75
2022/03/15 11:14:47;;;;;;;15.25;7.70;;;10.80;99.90;;;;;;5003266;22;89161;-80
2022/03/15 11:17:24;;;;;;;13.27;7.97;;;10.80;99.90;;;;;;4979562;28;91433;-81
2022/03/15 11:19:53;;;;;;;14.00;8.15;;;10.80;99.90;;;;;;4981537;28;90485;-80
2022/03/15 11:22:28;;;;;;;13.13;7.57;;;10.80;99.90;;;;;;4963691;28;92744;-80
2022/03/15 11:25:14;;;;;;;15.35;7.82;;;10.70;99.90;;;;;;4979100;28;89159;-80
2022/03/15 11:27:42;;;;;;;11.63;7.95;;;10.60;99.90;;;;;;4961530;28;90178;-80
2022/03/15 11:30:11;;;;;;;18.23;7.90;;;10.60;99.90;;;;;;4943124;28;92741;-80
2022/03/15 11:32:37;;;;;;;16.63;7.80;;;10.60;99.90;;;;;;4961778;28;90084;-80
2022/03/15 11:35:05;;;;;;;13.95;8.02;;;10.40;99.90;;;;;;4960927;28;90293;-80
2022/03/15 11:37:31;;;;;;;18.20;7.68;;;10.50;99.90;;;;;;4943391;28;92730;-80
2022/03/15 11:40:03;;;;;;;16.77;7.80;;;10.60;99.90;;;;;;4961468;28;89287;-80
2022/03/15 11:42:29;;;;;;;13.65;7.88;;;10.50;99.90;;;;;;4928253;28;92034;-80
2022/03/15 11:45:21;;;;;;;16.65;8.70;;;10.60;99.90;;;;;;4942950;28;89726;-80
2022/03/15 11:47:50;;;;;;;13.73;7.55;;;10.50;99.90;;;;;;4962120;28;90101;-81
2022/03/15 11:50:39;;;;;;;21.80;7.97;;;10.40;99.90;;;;;;4966013;28;90458;-81
2022/03/15 11:53:27;;;;;;;15.93;7.53;;;10.50;99.90;;;;;;4969206;28;90050;-81
2022/03/15 11:56:02;;;;;;;13.88;8.18;;;10.40;99.90;;;;;;4964496;28;89266;-77
2022/03/15 11:58:29;;;;;;;14.77;8.73;;;10.40;99.90;;;;;;4943149;28;92304;-78
2022/03/15 12:00:57;;;;;;;16.60;9.57;;;10.30;99.90;;;;;;4964077;28;91535;-77
2022/03/15 12:03:26;;;;;;;16.73;8.50;;;10.30;99.90;;;;;;4962308;28;89684;-78
2022/03/15 12:05:57;;;;;;;12.82;7.53;;;10.30;99.90;;;;;;4943038;28;89323;-77
2022/03/15 12:08:26;;;;;;;12.40;7.47;;;10.40;99.90;;;;;;4969005;28;89418;-78
2022/03/15 12:11:01;;;;;;;11.52;6.55;;;10.40;99.90;;;;;;4970225;28;90610;-78
2022/03/15 12:13:45;;;;;;;11.98;7.03;;;10.40;99.90;;;;;;4951840;28;92304;-78
2022/03/15 12:16:22;;;;;;;11.18;7.38;;;10.50;99.90;;;;;;4969863;28;89329;-78
2022/03/15 12:19:00;;;;;;;13.18;7.13;;;10.50;99.90;;;;;;4971148;28;89160;-78
2022/03/15 12:21:26;;;;;;;11.63;7.13;;;10.50;99.90;;;;;;4961429;28;89338;-78
2022/03/15 12:23:54;;;;;;;11.77;7.20;;;10.50;99.90;;;;;;4962432;28;90237;-79
2022/03/15 12:26:20;;;;;;;12.35;7.30;;;10.40;99.90;;;;;;4964006;28;91019;-78
2022/03/15 12:29:07;;;;;;;11.40;7.55;;;10.20;99.90;;;;;;4961856;28;89696;-79
2022/03/15 12:31:40;;;;;;;13.40;7.82;;;10.20;99.90;;;;;;4979966;28;90103;-79
2022/03/15 12:34:14;;;;;;;12.10;6.75;;;10.20;99.90;;;;;;4950487;28;91540;-78
2022/03/15 12:36:53;;;;;;;10.30;7.60;;;10.20;99.90;;;;;;4976460;28;89288;-79
2022/03/15 12:39:26;;;;;;;12.75;7.90;;;10.30;99.90;;;;;;4949071;28;93406;-79
2022/03/15 12:42:05;;;;;;;10.88;7.25;;;10.20;99.90;;;;;;4952254;28;92753;-78
2022/03/15 12:44:45;;;;;;;10.40;6.70;;;10.20;99.90;;;;;;4973896;28;89200;-78
2022/03/15 12:47:15;;;;;;;10.27;5.70;;;10.10;99.90;;;;;;4941421;28;89416;-78
2022/03/15 12:49:41;;;;;;;10.57;6.60;;;10.20;99.90;;;;;;4923893;28;90894;-79
2022/03/15 12:52:12;;;;;;;10.35;6.82;;;10.40;99.90;;;;;;4939591;28;90702;-78
2022/03/15 12:54:38;;;;;;;8.57;5.93;;;10.70;99.90;;;;;;4954886;28;89913;-79
2022/03/15 12:57:10;;;;;;;10.23;6.28;;;11.10;99.90;;;;;;4974019;28;89346;-78
2022/03/15 12:59:36;;;;;;;10.23;6.70;;;11.40;99.90;;;;;;4948935;28;91806;-78
2022/03/15 13:02:04;;;;;;;10.25;6.60;;;11.50;99.90;;;;;;4965538;28;90055;-77
2022/03/15 13:04:31;;;;;;;11.82;6.60;;;11.60;99.90;;;;;;4957253;28;91522;-79
2022/03/15 13:06:58;;;;;;;7.78;5.97;;;11.50;99.90;;;;;;4941518;28;89441;-78
2022/03/15 13:09:25;;;;;;;10.45;6.10;;;11.60;99.90;;;;;;4978031;28;90424;-76
2022/03/15 13:11:52;;;;;;;9.07;5.82;;;11.70;99.90;;;;;;4977688;28;90367;-76
2022/03/15 13:14:22;;;;;;;10.52;6.18;;;11.80;99.90;;;;;;4968805;28;89689;-78
2022/03/15 13:16:49;;;;;;;9.75;5.82;;;11.80;99.90;;;;;;4959794;28;90286;-78
2022/03/15 13:19:29;;;;;;;8.95;5.65;;;11.90;99.90;;;;;;4947511;28;93137;-77
2022/03/15 13:21:55;;;;;;;10.73;5.80;;;11.90;99.90;;;;;;4957406;28;89880;-78
2022/03/15 13:24:23;;;;;;;11.60;5.35;;;11.70;99.90;;;;;;4961547;28;89741;-77
2022/03/15 13:26:58;;;;;;;8.13;5.00;;;11.80;99.90;;;;;;4971558;28;89467;-77
2022/03/15 13:29:27;;;;;;;8.98;5.10;;;12.00;99.90;;;;;;4944349;28;93086;-78
2022/03/15 13:31:59;;;;;;;9.43;5.30;;;12.20;99.90;;;;;;4963970;28;89924;-77
2022/03/15 13:34:28;;;;;;;12.20;5.68;;;12.40;99.90;;;;;;4958430;28;88921;-78
2022/03/15 13:36:59;;;;;;;8.63;5.57;;;12.50;99.90;;;;;;4968385;28;89903;-75
2022/03/15 13:39:25;;;;;;;8.60;5.50;;;12.40;99.90;;;;;;4977564;28;90269;-75
2022/03/15 13:41:53;;;;;;;13.52;5.80;;;12.30;99.90;;;;;;4958951;28;93153;-75
2022/03/15 13:44:25;;;;;;;8.07;5.40;;;12.20;99.90;;;;;;4977359;28;89951;-75
2022/03/15 13:47:01;;;;;;;9.95;5.25;;;12.10;99.90;;;;;;4959311;28;89430;-75
2022/03/15 13:49:28;;;;;;;7.28;5.13;;;11.90;99.90;;;;;;4977609;28;89237;-75
2022/03/15 13:52:16;;;;;;;8.68;5.55;;;11.90;99.90;;;;;;4977282;28;90048;-74
2022/03/15 13:55:04;;;;;;;8.75;5.70;;;11.90;99.90;;;;;;4980477;28;89913;-75
2022/03/15 13:57:36;;;;;;;14.48;7.13;;;12.00;99.90;;;;;;4941689;28;89380;-75
2022/03/15 14:00:11;;;;;;;12.25;5.85;;;12.10;99.90;;;;;;4941733;28;89879;-76
2022/03/15 14:02:38;;;;;;;7.20;5.18;;;12.20;99.90;;;;;;4924355;28;92702;-75
2022/03/15 14:05:06;;;;;;;10.43;4.97;;;12.00;99.90;;;;;;4941167;28;89272;-76
2022/03/15 14:07:35;;;;;;;7.32;4.95;;;11.80;99.90;;;;;;4923218;28;90263;-76
2022/03/15 14:10:08;;;;;;;11.88;5.65;;;11.70;99.90;;;;;;4960138;28;89776;-77
2022/03/15 14:12:35;;;;;;;10.02;4.90;;;11.80;99.90;;;;;;4980636;28;89179;-75
2022/03/15 14:15:07;;;;;;;9.82;4.78;;;11.80;99.90;;;;;;4979492;28;90133;-76
2022/03/15 14:17:50;;;;;;;9.00;5.05;;;11.80;99.90;;;;;;4962531;28;89373;-77
2022/03/15 14:20:21;;;;;;;7.50;4.85;;;11.70;99.90;;;;;;4980500;28;90480;-76
2022/03/15 14:22:56;;;;;;;5.78;4.13;;;11.60;99.90;;;;;;4980372;28;90545;-76
2022/03/15 14:25:27;;;;;;;11.07;4.38;;;11.60;99.90;;;;;;4963739;28;91742;-77
2022/03/15 14:28:01;;;;;;;10.32;6.05;;;11.60;99.90;;;;;;4962707;28;89336;-77
2022/03/15 14:30:28;;;;;;;10.77;5.93;;;11.50;99.90;;;;;;4980194;28;89314;-77
2022/03/15 14:33:02;;;;;;;8.90;4.53;;;11.50;99.90;;;;;;4980082;28;91564;-76
2022/03/15 14:35:32;;;;;;;6.30;3.90;;;11.40;99.90;;;;;;4980780;28;90864;-78
2022/03/15 14:38:14;;;;;;;10.02;4.32;;;11.20;99.90;;;;;;4980941;28;89599;-76
2022/03/15 14:40:51;;;;;;;6.70;3.70;;;11.20;99.90;;;;;;4962345;28;91872;-75
2022/03/15 14:43:30;;;;;;;7.07;4.13;;;11.10;99.90;;;;;;4923342;28;92095;-76
2022/03/15 14:45:56;;;;;;;7.05;3.72;;;10.90;99.90;;;;;;4958095;28;90001;-76
2022/03/15 14:48:22;;;;;;;7.85;4.47;;;10.80;99.90;;;;;;4980222;28;89361;-76
2022/03/15 14:50:48;;;;;;;6.07;4.10;;;10.70;99.90;;;;;;4980311;28;89698;-78
2022/03/15 14:53:16;;;;;;;6.93;4.78;;;10.60;99.90;;;;;;4962177;28;91469;-78
2022/03/15 14:55:42;;;;;;;6.63;4.22;;;10.50;99.90;;;;;;4972311;28;90092;-77
2022/03/15 14:58:09;;;;;;;8.25;4.35;;;10.50;99.90;;;;;;4960010;28;90150;-78
2022/03/15 15:00:36;;;;;;;10.25;5.30;;;10.40;99.90;;;;;;4941885;28;91650;-77
2022/03/15 15:03:01;;;;;;;8.55;5.45;;;10.30;99.90;;;;;;4957559;28;90711;-77
2022/03/15 15:05:29;;;;;;;6.63;5.18;;;10.20;99.90;;;;;;4959059;28;89694;-77
2022/03/15 15:07:54;;;;;;;7.43;5.13;;;10.10;99.90;;;;;;4942730;28;89330;-77
2022/03/15 15:10:21;;;;;;;8.40;5.07;;;9.80;99.90;;;;;;4960002;28;89129;-77
2022/03/15 15:12:48;;;;;;;8.82;6.20;;;9.70;99.90;;;;;;4959921;28;90778;-78
2022/03/15 15:15:15;;;;;;;12.35;6.28;;;9.60;99.90;;;;;;4940389;28;92385;-77
2022/03/15 15:17:46;;;;;;;16.10;8.77;;;9.50;99.90;;;;;;4941044;28;89934;-77
2022/03/15 15:20:13;;;;;;;17.77;11.10;;;9.40;99.90;;;;;;4957511;28;90063;-76
2022/03/15 15:22:42;;;;;;;19.92;12.77;;;9.20;99.90;;;;;;4938822;28;92866;-78
2022/03/15 15:25:10;;;;;;;21.80;11.88;;;9.10;99.90;;;;;;4958134;28;91115;-77
2022/03/15 15:27:38;;;;;;;23.55;13.43;;;9.00;99.90;;;;;;4939733;28;89391;-78
2022/03/15 15:30:05;;;;;;;21.17;13.48;;;8.90;99.90;;;;;;4943057;28;91323;-78
2022/03/15 15:32:31;;;;;;;20.98;14.38;;;8.80;99.90;;;;;;4940825;28;92901;-78
2022/03/15 15:34:56;;;;;;;19.42;12.70;;;8.70;99.90;;;;;;4956919;28;90183;-78
2022/03/15 15:37:22;;;;;;;23.02;13.82;;;8.60;99.90;;;;;;4938313;28;89655;-77
2022/03/15 15:39:48;;;;;;;21.90;14.18;;;8.60;99.90;;;;;;4941275;28;93265;-77
2022/03/15 15:42:17;;;;;;;21.70;13.80;;;8.50;99.90;;;;;;4940843;28;93321;-78
2022/03/15 15:44:46;;;;;;;20.65;14.48;;;8.40;99.90;;;;;;4958441;28;89681;-78
2022/03/15 15:47:16;;;;;;;24.42;14.20;;;8.40;99.90;;;;;;4958081;28;90245;-78
2022/03/15 15:49:42;;;;;;;24.65;14.88;;;8.40;99.90;;;;;;4959152;28;89776;-77
2022/03/15 15:52:08;;;;;;;24.83;14.70;;;8.30;99.90;;;;;;4940998;28;91841;-78
2022/03/15 15:54:35;;;;;;;23.95;15.02;;;8.30;99.90;;;;;;4958438;28;90047;-78
2022/03/15 15:57:01;;;;;;;26.30;15.52;;;8.30;99.90;;;;;;4958688;28;89380;-77
2022/03/15 15:59:28;;;;;;;26.15;15.57;;;8.30;99.90;;;;;;4943708;28;93318;-77
2022/03/15 16:01:54;;;;;;;26.23;15.38;;;8.20;99.90;;;;;;4962516;28;90397;-77
2022/03/15 16:04:21;;;;;;;20.30;14.65;;;8.30;99.90;;;;;;4949718;28;92579;-78
2022/03/15 16:06:47;;;;;;;21.10;15.63;;;8.20;99.90;;;;;;4940504;28;89428;-77
2022/03/15 16:09:17;;;;;;;23.75;15.48;;;8.20;99.90;;;;;;4958647;28;90277;-77
2022/03/15 16:11:45;;;;;;;27.90;16.52;;;8.20;99.90;;;;;;4941953;28;94193;-77
2022/03/15 16:14:12;;;;;;;27.63;15.95;;;8.10;99.90;;;;;;4939952;28;93823;-78
2022/03/15 16:16:41;;;;;;;26.42;16.73;;;8.10;99.90;;;;;;4957660;28;89410;-77
2022/03/15 16:19:07;;;;;;;24.75;15.85;;;8.10;99.90;;;;;;4957953;28;89717;-77
2022/03/15 16:21:34;;;;;;;21.40;15.68;;;8.10;99.90;;;;;;4939964;28;91888;-77
2022/03/15 16:24:01;;;;;;;28.42;17.38;;;8.10;99.90;;;;;;4958253;28;89722;-78
2022/03/15 16:26:27;;;;;;;27.27;16.15;;;8.00;99.90;;;;;;4940091;28;89225;-77
2022/03/15 16:28:54;;;;;;;27.13;16.17;;;8.00;99.90;;;;;;4958552;28;90240;-77
2022/03/15 16:31:22;;;;;;;27.92;16.88;;;8.00;99.90;;;;;;4958084;28;89573;-77
2022/03/15 16:33:47;;;;;;;25.38;16.85;;;8.00;99.90;;;;;;4940492;28;91155;-77
2022/03/15 16:36:14;;;;;;;27.73;17.52;;;8.00;99.90;;;;;;4962344;28;90218;-78
2022/03/15 16:38:40;;;;;;;30.40;17.83;;;7.90;99.90;;;;;;4977874;28;89794;-78
2022/03/15 16:41:06;;;;;;;28.05;17.58;;;7.90;99.90;;;;;;4959822;28;91663;-78
2022/03/15 16:43:31;;;;;;;26.85;17.38;;;7.90;99.90;;;;;;4960417;28;92479;-77
2022/03/15 16:45:58;;;;;;;34.60;20.17;;;7.90;99.90;;;;;;4979526;28;89168;-77
2022/03/15 16:48:23;;;;;;;36.03;20.17;;;7.90;99.90;;;;;;4973566;28;91232;-78
2022/03/15 16:50:50;;;;;;;35.42;21.17;;;7.90;99.90;;;;;;4964209;28;89337;-76
2022/03/15 16:53:16;;;;;;;31.95;20.70;;;7.90;99.90;;;;;;4942795;28;92948;-80
2022/03/15 16:55:46;;;;;;;44.40;24.00;;;7.90;99.90;;;;;;4941732;28;89385;-77
2022/03/15 17:00:57;;;;;;;35.85;20.08;;;7.90;99.90;;;;;;4956335;28;90363;-79
2022/03/15 17:06:07;;;;;;;38.28;22.15;;;7.80;99.90;;;;;;4952794;28;89222;-77
2022/03/15 17:08:36;;;;;;;43.60;23.35;;;7.80;99.90;;;;;;4959145;28;89430;-76
2022/03/15 17:11:02;;;;;;;44.42;25.23;;;7.80;99.90;;;;;;4959403;28;90204;-80
2022/03/15 17:13:28;;;;;;;34.45;20.70;;;7.80;99.90;;;;;;4958382;28;92507;-78
2022/03/15 17:15:57;;;;;;;34.88;21.77;;;7.80;99.90;;;;;;4985577;22;90771;-73
2022/03/15 17:18:23;;;;;;;36.47;22.52;;;7.70;99.90;;;;;;4958289;28;92601;-74
2022/03/15 17:20:48;;;;;;;44.63;25.33;;;7.70;99.90;;;;;;4976893;28;89989;-75
2022/03/15 17:23:17;;;;;;;49.75;26.00;;;7.70;99.90;;;;;;4978185;28;92407;-74
2022/03/15 17:25:43;;;;;;;41.20;23.73;;;7.70;99.90;;;;;;4973716;28;90285;-76
2022/03/15 17:28:09;;;;;;;45.10;25.05;;;7.70;99.90;;;;;;4971578;28;92994;-72
2022/03/15 17:30:35;;;;;;;41.55;23.92;;;7.70;99.90;;;;;;4984827;28;90002;-74
2022/03/15 17:33:01;;;;;;;43.80;24.48;;;7.70;99.90;;;;;;4963610;28;92629;-75
2022/03/15 17:35:27;;;;;;;41.58;23.77;;;7.70;99.90;;;;;;4994148;28;89621;-75
2022/03/15 17:38:16;;;;;;;40.97;24.00;;;7.70;99.90;;;;;;4982887;28;89320;-75
2022/03/15 17:40:42;;;;;;;38.40;22.92;;;7.70;99.90;;;;;;4965060;28;91754;-75
2022/03/15 17:43:10;;;;;;;45.40;24.83;;;7.70;99.90;;;;;;4974982;28;92567;-75
2022/03/15 17:45:39;;;;;;;40.35;24.30;;;7.60;99.90;;;;;;4983933;28;90065;-75
2022/03/15 17:48:07;;;;;;;42.72;24.20;;;7.60;99.90;;;;;;4997011;28;89703;-76
2022/03/15 17:50:33;;;;;;;39.28;23.15;;;7.60;99.90;;;;;;4980598;28;90274;-74
2022/03/15 17:52:59;;;;;;;41.05;24.55;;;7.60;99.90;;;;;;4991255;28;89486;-75
2022/03/15 17:55:25;;;;;;;42.50;24.58;;;7.60;99.90;;;;;;4986156;28;89361;-76